Time;durP1;ratioP1;P1;durP2;ratioP2;P2;SDS_P1;SDS_P2;PMS_P1;PMS_P2;Temp;Humidity;BMP_temperature;BMP_pressure;BME280_temperature;BME280_humidity;BME280_pressure;Samples;Min_cycle;Max_cycle;Signal;HPM_P1;HPM_P2
2022/05/17 00:02:24;;;;;;;2.58;2.33;;;17.70;99.90;17.80;100662.00;;;;5007121;27;94682;-70
2022/05/17 00:04:50;;;;;;;3.65;2.50;;;17.70;99.90;17.70;100668.00;;;;4977905;28;107388;-71
2022/05/17 00:07:17;;;;;;;2.85;2.65;;;17.70;99.90;17.70;100680.00;;;;4973326;28;99794;-71
2022/05/17 00:09:43;;;;;;;3.67;3.33;;;17.60;99.90;17.70;100669.00;;;;4994284;27;83045;-71
2022/05/17 00:12:09;;;;;;;4.65;3.22;;;17.60;99.90;17.70;100677.00;;;;5016582;27;101395;-70
2022/05/17 00:14:35;;;;;;;5.30;3.20;;;17.60;99.90;17.60;100680.00;;;;5016562;27;82623;-70
2022/05/17 00:17:02;;;;;;;2.33;2.13;;;17.50;99.90;17.70;100688.00;;;;5015986;27;113931;-70
2022/05/17 00:19:29;;;;;;;4.63;3.92;;;17.50;99.90;17.60;100684.00;;;;5000280;27;84130;-71
2022/05/17 00:21:55;;;;;;;5.85;3.72;;;17.50;99.90;17.70;100686.00;;;;4995423;27;111940;-71
2022/05/17 00:24:26;;;;;;;4.05;3.53;;;17.50;99.90;17.70;100696.00;;;;5016037;27;82996;-71
2022/05/17 00:26:52;;;;;;;2.85;2.65;;;17.60;99.90;17.70;100683.00;;;;4981342;27;82802;-71
2022/05/17 00:29:37;;;;;;;4.13;3.08;;;17.60;99.90;17.70;100685.00;;;;5001631;27;84084;-70
2022/05/17 00:32:03;;;;;;;5.80;3.55;;;17.60;99.90;17.70;100683.00;;;;4982457;27;94764;-71
2022/05/17 00:34:29;;;;;;;6.50;3.10;;;17.60;99.90;17.70;100681.00;;;;5000987;27;101682;-71
2022/05/17 00:36:55;;;;;;;4.15;3.17;;;17.50;99.90;17.70;100678.00;;;;5019189;27;103108;-71
2022/05/17 00:39:21;;;;;;;3.72;3.22;;;17.50;99.90;17.60;100683.00;;;;5012060;27;85314;-71
2022/05/17 00:41:47;;;;;;;3.83;3.25;;;17.50;99.90;17.60;100680.00;;;;4991791;27;109281;-70
2022/05/17 00:47:49;;;;;;;4.10;3.33;;;17.50;99.90;17.60;100680.00;;;;5019116;27;82816;-70
2022/05/17 00:50:27;;;;;;;5.97;2.83;;;17.50;99.90;17.60;100678.00;;;;4891027;28;82842;-69
2022/05/17 00:52:59;;;;;;;4.03;3.55;;;17.50;99.90;17.60;100682.00;;;;4901027;28;82667;-70
2022/05/17 00:55:55;;;;;;;4.85;3.67;;;17.50;99.90;17.60;100671.00;;;;4950907;28;82608;-69
2022/05/17 00:58:33;;;;;;;4.88;3.45;;;17.50;99.90;17.60;100663.00;;;;4969539;27;84528;-69
2022/05/17 01:01:29;;;;;;;4.35;2.88;;;17.50;99.90;17.60;100662.00;;;;5002705;27;105671;-70
2022/05/17 01:04:07;;;;;;;6.00;4.18;;;17.50;99.90;17.60;100661.00;;;;4979995;28;103438;-69
2022/05/17 01:06:42;;;;;;;4.75;3.40;;;17.50;99.90;17.60;100659.00;;;;4981904;28;82837;-69
2022/05/17 01:09:09;;;;;;;7.32;3.70;;;17.50;99.90;17.60;100654.00;;;;4989671;27;83503;-70
2022/05/17 01:11:35;;;;;;;5.00;4.55;;;17.40;99.90;17.50;100650.00;;;;5002839;27;103765;-69
2022/05/17 01:16:45;;;;;;;4.28;3.55;;;17.40;99.90;17.50;100648.00;;;;4996600;28;82746;-70
2022/05/17 01:19:12;;;;;;;6.05;3.80;;;17.30;99.90;17.50;100656.00;;;;5010772;27;90763;-70
2022/05/17 01:21:38;;;;;;;9.07;3.92;;;17.30;99.90;17.40;100652.00;;;;5019606;27;82725;-70
2022/05/17 01:24:05;;;;;;;4.50;3.20;;;17.30;99.90;17.40;100648.00;;;;5018432;27;110921;-70
2022/05/17 01:26:43;;;;;;;4.63;4.20;;;17.30;99.90;17.40;100648.00;;;;5019920;27;94770;-70
2022/05/17 01:29:13;;;;;;;4.82;3.88;;;17.30;99.90;17.40;100656.00;;;;4999444;27;82928;-70
2022/05/17 01:31:40;;;;;;;4.35;3.95;;;17.30;99.90;17.40;100643.00;;;;5019445;27;83439;-69
2022/05/17 01:34:10;;;;;;;5.47;3.83;;;17.30;99.90;17.40;100648.00;;;;5006664;27;98123;-70
2022/05/17 01:36:37;;;;;;;4.78;4.13;;;17.20;99.90;17.30;100639.00;;;;5000508;27;82625;-70
2022/05/17 01:39:04;;;;;;;4.95;2.92;;;17.20;99.90;17.30;100644.00;;;;5011528;27;98887;-70
2022/05/17 01:41:31;;;;;;;3.95;3.42;;;17.20;99.90;17.30;100648.00;;;;4978104;28;83023;-70
2022/05/17 01:43:57;;;;;;;3.90;3.50;;;17.20;99.90;17.30;100641.00;;;;4998583;28;82920;-70
2022/05/17 01:46:23;;;;;;;4.93;3.58;;;17.20;99.90;17.30;100641.00;;;;4999236;28;82669;-69
2022/05/17 01:48:51;;;;;;;4.85;3.97;;;17.20;99.90;17.30;100632.00;;;;5006729;27;83008;-70
2022/05/17 01:51:18;;;;;;;5.38;3.10;;;17.20;99.90;17.30;100638.00;;;;5020142;27;82844;-70
2022/05/17 01:53:44;;;;;;;3.28;2.97;;;17.20;99.90;17.30;100631.00;;;;5011289;27;82623;-70
2022/05/17 01:56:10;;;;;;;4.30;2.72;;;17.20;99.90;17.30;100641.00;;;;4998990;28;82730;-70
2022/05/17 01:58:37;;;;;;;3.35;3.00;;;17.20;99.90;17.30;100641.00;;;;4999464;27;83760;-70
2022/05/17 02:01:07;;;;;;;4.82;3.40;;;17.20;99.90;17.30;100635.00;;;;4999004;28;84040;-71
2022/05/17 02:03:32;;;;;;;4.55;2.90;;;17.20;99.90;17.40;100638.00;;;;4997896;27;82740;-70
2022/05/17 02:05:58;;;;;;;5.05;3.83;;;17.30;99.90;17.40;100635.00;;;;5018472;27;82512;-70
2022/05/17 02:08:24;;;;;;;4.50;3.08;;;17.20;99.90;17.40;100642.00;;;;5017352;27;113952;-70
2022/05/17 02:10:50;;;;;;;3.55;3.03;;;17.30;99.90;17.40;100642.00;;;;4994912;28;107489;-71
2022/05/17 02:13:18;;;;;;;4.63;2.83;;;17.30;99.90;17.40;100640.00;;;;4998301;27;82824;-70
2022/05/17 02:15:44;;;;;;;5.75;3.08;;;17.30;99.90;17.40;100640.00;;;;4999016;28;82072;-70
2022/05/17 02:18:10;;;;;;;3.72;3.30;;;17.30;99.90;17.50;100646.00;;;;4998637;28;83694;-70
2022/05/17 02:20:36;;;;;;;3.30;2.85;;;17.30;99.90;17.40;100644.00;;;;4997729;28;111409;-70
2022/05/17 02:23:07;;;;;;;3.78;3.20;;;17.30;99.90;17.50;100637.00;;;;5000167;27;110546;-71
2022/05/17 02:25:34;;;;;;;3.63;2.50;;;17.30;99.90;17.50;100645.00;;;;5000121;27;82288;-70
2022/05/17 02:27:59;;;;;;;4.75;2.83;;;17.30;99.90;17.50;100642.00;;;;5016340;27;84155;-70
2022/05/17 02:30:25;;;;;;;2.58;2.35;;;17.30;99.90;17.50;100643.00;;;;4998203;28;113148;-70
2022/05/17 02:32:51;;;;;;;3.28;2.47;;;17.40;99.90;17.50;100635.00;;;;5012680;27;108570;-69
2022/05/17 02:35:16;;;;;;;4.60;2.67;;;17.40;99.90;17.50;100639.00;;;;5017806;27;108227;-69
2022/05/17 02:37:42;;;;;;;3.80;2.90;;;17.40;99.90;17.50;100640.00;;;;5019757;27;84182;-69
2022/05/17 02:40:09;;;;;;;2.90;2.08;;;17.40;99.90;17.50;100638.00;;;;5011097;27;110922;-72
2022/05/17 02:42:35;;;;;;;3.42;2.58;;;17.30;99.90;17.50;100640.00;;;;5017458;27;83024;-69
2022/05/17 02:45:01;;;;;;;4.45;2.30;;;17.40;99.90;17.50;100644.00;;;;5018178;27;103932;-69
2022/05/17 02:47:27;;;;;;;2.90;2.60;;;17.40;99.90;17.50;100649.00;;;;5017725;27;83834;-70
2022/05/17 02:49:52;;;;;;;2.95;2.10;;;17.40;99.90;17.50;100645.00;;;;5018798;27;100506;-70
2022/05/17 02:52:18;;;;;;;5.00;2.05;;;17.40;99.90;17.50;100641.00;;;;5007575;27;110587;-70
2022/05/17 02:54:44;;;;;;;3.30;2.60;;;17.40;99.90;17.60;100652.00;;;;5000019;27;108806;-70
2022/05/17 02:57:10;;;;;;;4.88;2.42;;;17.40;99.90;17.50;100649.00;;;;4996698;28;112936;-71
2022/05/17 02:59:36;;;;;;;1.95;1.60;;;17.40;99.90;17.50;100647.00;;;;4999088;27;82763;-69
2022/05/17 03:02:02;;;;;;;4.45;2.35;;;17.40;99.90;17.50;100656.00;;;;4997116;27;110545;-70
2022/05/17 03:04:28;;;;;;;3.60;2.72;;;17.40;99.90;17.50;100652.00;;;;4999798;27;81935;-70
2022/05/17 03:06:55;;;;;;;3.30;2.33;;;17.40;99.90;17.40;100653.00;;;;5017634;27;83935;-70
2022/05/17 03:09:24;;;;;;;3.17;2.65;;;17.30;99.90;17.40;100649.00;;;;5007030;27;112091;-70
2022/05/17 03:15:20;;;;;;;3.20;2.25;;;17.30;99.90;17.30;100665.00;;;;4995296;28;82897;-70
2022/05/17 03:17:47;;;;;;;4.22;3.65;;;17.20;99.90;17.30;100657.00;;;;4979484;27;83002;-69
2022/05/17 03:20:12;;;;;;;2.85;2.60;;;17.20;99.90;17.20;100669.00;;;;4998093;28;99486;-69
2022/05/17 03:22:38;;;;;;;4.00;3.55;;;17.10;99.90;17.20;100660.00;;;;5011484;27;82578;-71
2022/05/17 03:25:04;;;;;;;3.58;3.28;;;17.10;99.90;17.20;100660.00;;;;5016483;27;108209;-70
2022/05/17 03:27:30;;;;;;;4.68;3.30;;;17.10;99.90;17.20;100662.00;;;;5016675;27;103579;-71
2022/05/17 03:29:57;;;;;;;7.78;3.60;;;17.10;99.90;17.20;100669.00;;;;4999523;27;113557;-70
2022/05/17 03:32:23;;;;;;;3.75;3.38;;;17.10;99.90;17.20;100677.00;;;;5003912;27;93223;-70
2022/05/17 03:34:48;;;;;;;4.82;3.85;;;17.10;99.90;17.10;100672.00;;;;4979737;27;108020;-70
2022/05/17 03:37:14;;;;;;;4.15;3.75;;;17.00;99.90;17.10;100672.00;;;;5007759;27;108873;-70
2022/05/17 03:39:40;;;;;;;4.78;3.28;;;17.00;99.90;17.10;100678.00;;;;4996562;28;113584;-70
2022/05/17 03:42:09;;;;;;;4.25;3.20;;;17.00;99.90;17.10;100672.00;;;;4999204;27;110577;-69
2022/05/17 03:44:36;;;;;;;7.30;4.55;;;17.00;99.90;17.10;100673.00;;;;5018096;27;82675;-70
2022/05/17 03:47:07;;;;;;;3.95;3.28;;;17.00;99.90;17.00;100674.00;;;;4998003;27;83337;-71
2022/05/17 03:49:36;;;;;;;4.70;3.75;;;16.90;99.90;17.00;100674.00;;;;4978878;28;82584;-72
2022/05/17 03:52:02;;;;;;;4.68;3.65;;;16.90;99.90;16.90;100680.00;;;;4984788;27;82872;-71
2022/05/17 03:54:28;;;;;;;7.90;4.47;;;16.90;99.90;16.90;100682.00;;;;4998882;27;82024;-71
2022/05/17 03:56:54;;;;;;;5.65;4.05;;;16.80;99.90;16.80;100685.00;;;;4998833;27;82822;-70
2022/05/17 03:59:19;;;;;;;4.38;3.97;;;16.80;99.90;16.80;100681.00;;;;5017552;27;83623;-69
2022/05/17 04:01:45;;;;;;;4.75;3.65;;;16.70;99.90;16.80;100690.00;;;;5013756;27;83713;-68
2022/05/17 04:04:12;;;;;;;4.85;4.07;;;16.70;99.90;16.70;100683.00;;;;4977413;28;108430;-69
2022/05/17 04:06:38;;;;;;;3.75;2.90;;;16.60;99.90;16.60;100689.00;;;;4979667;27;82756;-69
2022/05/17 04:09:05;;;;;;;6.10;3.80;;;16.60;99.90;16.50;100695.00;;;;4999905;27;113726;-70
2022/05/17 04:11:32;;;;;;;3.70;2.97;;;16.50;99.90;16.40;100700.00;;;;4966927;27;82619;-69
2022/05/17 04:13:58;;;;;;;3.55;3.15;;;16.40;99.90;16.30;100706.00;;;;5021478;27;82549;-70
2022/05/17 04:16:23;;;;;;;2.53;2.35;;;16.30;99.90;16.20;100707.00;;;;5019705;27;111542;-70
2022/05/17 04:18:49;;;;;;;2.72;2.42;;;16.20;99.90;16.10;100702.00;;;;5019944;27;112494;-69
2022/05/17 04:21:15;;;;;;;2.65;2.35;;;16.10;99.90;16.00;100712.00;;;;5020159;27;110576;-69
2022/05/17 04:23:41;;;;;;;2.80;2.20;;;16.00;99.90;15.90;100722.00;;;;5000685;27;108922;-67
2022/05/17 04:26:07;;;;;;;2.95;2.25;;;15.90;99.90;15.80;100725.00;;;;5000707;28;83852;-68
2022/05/17 04:28:33;;;;;;;3.00;2.05;;;15.80;99.90;15.70;100728.00;;;;5014581;27;112139;-68
2022/05/17 04:30:59;;;;;;;2.65;2.45;;;15.70;99.90;15.70;100729.00;;;;5019996;27;110462;-69
2022/05/17 04:33:25;;;;;;;2.83;2.45;;;15.60;99.90;15.60;100734.00;;;;5001101;27;108574;-68
2022/05/17 04:35:50;;;;;;;3.25;2.95;;;15.50;99.90;15.50;100740.00;;;;5009412;27;83342;-68
2022/05/17 04:38:16;;;;;;;2.42;2.22;;;15.50;99.90;15.40;100746.00;;;;5000464;28;82680;-68
2022/05/17 04:40:42;;;;;;;3.85;3.10;;;15.40;99.90;15.30;100745.00;;;;5016674;27;96184;-67
2022/05/17 04:43:09;;;;;;;3.38;2.75;;;15.30;99.90;15.20;100767.00;;;;5006914;27;88215;-68
2022/05/17 04:45:35;;;;;;;5.97;2.60;;;15.20;99.90;15.20;100761.00;;;;4997850;28;83110;-69
2022/05/17 04:48:02;;;;;;;3.58;2.55;;;15.20;99.90;15.10;100761.00;;;;5012195;27;89864;-68
2022/05/17 04:50:38;;;;;;;5.55;2.55;;;15.10;99.90;15.00;100773.00;;;;5016306;27;83688;-68
2022/05/17 04:53:04;;;;;;;6.93;2.93;;;15.00;99.90;14.90;100764.00;;;;5015029;27;101575;-69
2022/05/17 04:55:31;;;;;;;3.15;2.10;;;14.90;99.90;14.80;100766.00;;;;5011929;27;110828;-67
2022/05/17 04:57:57;;;;;;;3.45;2.55;;;14.80;99.90;14.70;100769.00;;;;5015119;27;82817;-68
2022/05/17 05:00:25;;;;;;;1.83;1.73;;;14.70;99.90;14.70;100770.00;;;;5014885;27;95034;-68
2022/05/17 05:02:52;;;;;;;5.45;2.85;;;14.70;99.90;14.60;100773.00;;;;5012151;27;93591;-67
2022/05/17 05:05:20;;;;;;;10.25;3.15;;;14.60;99.90;14.60;100778.00;;;;5008316;27;100162;-67
2022/05/17 05:07:46;;;;;;;4.55;2.17;;;14.60;99.90;14.50;100783.00;;;;5005109;27;82162;-67
2022/05/17 05:10:13;;;;;;;3.35;2.40;;;14.50;99.90;14.50;100788.00;;;;5012587;27;110006;-66
2022/05/17 05:12:45;;;;;;;3.95;2.33;;;14.50;99.90;14.50;100790.00;;;;5009812;27;82988;-67
2022/05/17 05:15:12;;;;;;;2.30;2.20;;;14.40;99.90;14.50;100792.00;;;;5008097;27;113873;-68
2022/05/17 05:17:39;;;;;;;3.92;2.45;;;14.40;99.90;14.40;100785.00;;;;5016162;27;83077;-67
2022/05/17 05:20:10;;;;;;;3.10;2.55;;;14.40;99.90;14.40;100798.00;;;;5012769;27;82783;-68
2022/05/17 05:22:36;;;;;;;3.60;2.40;;;14.40;99.90;14.40;100796.00;;;;4995596;27;91627;-68
2022/05/17 05:25:03;;;;;;;4.20;2.83;;;14.40;99.90;14.40;100801.00;;;;5014694;27;112805;-67
2022/05/17 05:27:35;;;;;;;3.63;2.42;;;14.30;99.90;14.30;100792.00;;;;4997463;27;83254;-68
2022/05/17 05:30:04;;;;;;;2.80;1.80;;;14.30;99.90;14.30;100804.00;;;;5015954;27;100427;-69
2022/05/17 05:32:30;;;;;;;2.90;2.13;;;14.30;99.90;14.30;100808.00;;;;5015491;27;85666;-68
2022/05/17 05:34:55;;;;;;;3.37;2.33;;;14.50;99.90;14.30;100812.00;;;;5012274;27;84145;-68
2022/05/17 05:37:21;;;;;;;2.00;1.80;;;14.30;99.90;14.30;100808.00;;;;5016017;27;83655;-67
2022/05/17 05:39:50;;;;;;;7.10;2.40;;;14.30;99.90;14.40;100813.00;;;;5009778;27;92610;-67
2022/05/17 05:42:38;;;;;;;2.47;2.10;;;14.30;99.90;14.40;100816.00;;;;5013250;27;107191;-68
2022/05/17 05:45:06;;;;;;;3.67;1.83;;;14.30;99.90;14.40;100810.00;;;;5015731;27;103014;-66
2022/05/17 05:47:31;;;;;;;3.07;2.27;;;14.40;99.90;14.50;100815.00;;;;5014382;27;97045;-66
2022/05/17 05:49:57;;;;;;;2.40;2.20;;;14.40;99.90;14.50;100818.00;;;;5015927;27;110964;-66
2022/05/17 05:52:23;;;;;;;2.07;1.87;;;14.40;99.90;14.50;100817.00;;;;5014377;27;107921;-66
2022/05/17 05:54:49;;;;;;;4.67;2.33;;;14.50;99.90;14.60;100822.00;;;;5008091;27;83202;-67
2022/05/17 05:57:14;;;;;;;3.27;2.57;;;14.50;99.90;14.60;100808.00;;;;5011935;27;112307;-66
2022/05/17 05:59:41;;;;;;;3.07;2.40;;;14.50;99.90;14.50;100820.00;;;;5016020;27;82538;-66
2022/05/17 06:02:08;;;;;;;4.10;2.70;;;14.50;99.90;14.50;100814.00;;;;5015938;27;82816;-66
2022/05/17 06:04:34;;;;;;;4.00;2.27;;;14.40;99.90;14.50;100821.00;;;;5011685;27;85818;-66
2022/05/17 06:07:01;;;;;;;4.87;2.83;;;14.40;99.90;14.50;100828.00;;;;5013250;27;114044;-66
2022/05/17 06:09:27;;;;;;;2.53;2.33;;;14.40;99.90;14.50;100824.00;;;;5009230;27;82612;-66
2022/05/17 06:11:53;;;;;;;2.45;1.95;;;14.40;99.90;14.50;100839.00;;;;5014829;27;82761;-66
2022/05/17 06:14:20;;;;;;;2.30;2.10;;;14.40;99.90;14.50;100844.00;;;;5012268;27;90284;-66
2022/05/17 06:16:50;;;;;;;2.90;2.40;;;14.40;99.90;14.50;100847.00;;;;5015686;27;84239;-66
2022/05/17 06:19:16;;;;;;;4.80;2.57;;;14.40;99.90;14.40;100851.00;;;;5007353;27;99810;-67
2022/05/17 06:21:42;;;;;;;3.80;2.97;;;14.40;99.90;14.40;100855.00;;;;5015019;27;108968;-67
2022/05/17 06:24:08;;;;;;;5.47;2.40;;;14.30;99.90;14.50;100866.00;;;;5009451;27;114269;-67
2022/05/17 06:26:34;;;;;;;3.10;2.63;;;14.40;99.90;14.50;100874.00;;;;5005045;27;83766;-67
2022/05/17 06:29:00;;;;;;;3.27;2.63;;;14.40;99.90;14.60;100877.00;;;;5008401;27;108414;-67
2022/05/17 06:31:26;;;;;;;3.90;2.63;;;14.50;99.90;14.70;100876.00;;;;4996324;27;108540;-66
2022/05/17 06:33:52;;;;;;;3.57;3.23;;;14.50;99.90;14.70;100880.00;;;;5011009;27;83972;-66
2022/05/17 06:36:18;;;;;;;4.15;3.50;;;14.60;99.90;14.70;100872.00;;;;5012491;27;112730;-66
2022/05/17 06:38:43;;;;;;;3.33;2.67;;;14.60;99.90;14.70;100874.00;;;;5004048;27;109689;-67
2022/05/17 06:41:09;;;;;;;14.63;2.53;;;14.60;99.90;14.80;100879.00;;;;5012619;27;107294;-67
2022/05/17 06:43:35;;;;;;;3.07;2.77;;;14.70;99.90;14.80;100884.00;;;;5014210;27;112448;-66
2022/05/17 06:46:02;;;;;;;3.27;2.70;;;14.70;99.90;14.80;100874.00;;;;5011418;27;96959;-66
2022/05/17 06:48:29;;;;;;;6.30;2.97;;;14.70;99.90;14.70;100886.00;;;;5015305;27;82759;-65
2022/05/17 06:51:00;;;;;;;6.18;3.50;;;14.80;99.90;14.70;100895.00;;;;5014685;27;102161;-66
2022/05/17 06:53:26;;;;;;;3.33;2.72;;;14.60;99.90;14.80;100883.00;;;;5013073;27;98367;-66
2022/05/17 06:55:52;;;;;;;3.78;3.28;;;14.60;99.90;14.80;100885.00;;;;5014219;27;88248;-66
2022/05/17 06:58:17;;;;;;;4.07;3.67;;;14.70;99.90;14.90;100893.00;;;;5013580;27;90802;-67
2022/05/17 07:00:43;;;;;;;5.15;3.22;;;14.70;99.90;14.90;100897.00;;;;5013136;27;109765;-67
2022/05/17 07:03:09;;;;;;;9.32;3.55;;;14.80;99.90;15.00;100899.00;;;;5010976;27;111806;-66
2022/05/17 07:05:35;;;;;;;4.82;3.22;;;14.90;99.90;15.10;100895.00;;;;5005476;27;83665;-66
2022/05/17 07:08:02;;;;;;;7.40;2.90;;;14.90;99.90;15.20;100900.00;;;;5011733;27;109198;-66
2022/05/17 07:13:13;;;;;;;3.65;2.72;;;15.10;99.90;15.30;100922.00;;;;5011348;27;83251;-66
2022/05/17 07:15:43;;;;;;;10.68;3.33;;;15.10;99.90;15.30;100923.00;;;;5009892;27;82668;-67
2022/05/17 07:18:11;;;;;;;4.10;2.85;;;15.20;99.90;15.30;100916.00;;;;5013807;27;83842;-67
2022/05/17 07:20:37;;;;;;;2.45;2.25;;;15.20;99.90;15.40;100916.00;;;;5014876;27;82823;-67
2022/05/17 07:23:04;;;;;;;2.50;2.30;;;15.30;99.90;15.50;100929.00;;;;5013418;27;85781;-67
2022/05/17 07:25:32;;;;;;;5.00;2.63;;;15.40;99.90;15.50;100911.00;;;;5014223;27;83674;-67
2022/05/17 07:27:58;;;;;;;3.88;2.40;;;15.40;99.90;15.60;100921.00;;;;5013754;27;82697;-67
2022/05/17 07:30:24;;;;;;;5.38;2.80;;;15.50;99.90;15.60;100920.00;;;;5014762;27;82847;-68
2022/05/17 07:32:49;;;;;;;6.05;3.33;;;15.50;99.90;15.70;100923.00;;;;4994080;27;98486;-67
2022/05/17 07:35:15;;;;;;;5.03;2.75;;;15.50;99.90;15.80;100922.00;;;;5010670;27;83311;-66
2022/05/17 07:37:41;;;;;;;3.22;2.92;;;15.90;99.90;15.80;100929.00;;;;5013393;27;110772;-66
2022/05/17 07:40:08;;;;;;;3.30;2.83;;;15.70;99.90;15.90;100929.00;;;;5010037;27;82713;-66
2022/05/17 07:42:34;;;;;;;4.32;2.80;;;15.70;99.90;16.00;100938.00;;;;5016916;27;84936;-66
2022/05/17 07:44:59;;;;;;;2.70;2.22;;;15.80;99.90;16.00;100959.00;;;;5013654;27;113855;-66
2022/05/17 07:47:25;;;;;;;2.90;2.50;;;15.90;99.90;16.10;100973.00;;;;5017414;27;86723;-66
2022/05/17 07:49:51;;;;;;;5.35;2.85;;;16.00;99.90;16.10;100979.00;;;;5015749;27;109182;-66
2022/05/17 07:52:16;;;;;;;6.75;3.75;;;16.00;99.90;16.10;100982.00;;;;5016081;27;112838;-65
2022/05/17 07:54:43;;;;;;;5.28;3.03;;;16.00;99.90;16.10;100977.00;;;;5016530;27;112711;-66
2022/05/17 07:57:09;;;;;;;2.88;2.33;;;16.00;99.90;16.00;100978.00;;;;5008482;27;82639;-66
2022/05/17 07:59:35;;;;;;;6.13;2.90;;;16.00;99.90;16.00;100992.00;;;;5016497;27;108028;-65
2022/05/17 08:02:01;;;;;;;2.67;2.47;;;15.90;99.90;16.00;100992.00;;;;5016270;27;112051;-65
2022/05/17 08:04:29;;;;;;;6.85;2.90;;;15.90;99.90;16.00;100988.00;;;;5015638;27;111727;-65
2022/05/17 08:06:56;;;;;;;8.40;3.38;;;15.90;99.90;16.00;100991.00;;;;5011683;27;83825;-65
2022/05/17 08:09:23;;;;;;;10.50;2.88;;;15.90;99.90;16.00;100983.00;;;;5017326;27;82747;-66
2022/05/17 08:11:50;;;;;;;7.68;3.38;;;15.90;99.90;16.00;100980.00;;;;5017624;27;82910;-66
2022/05/17 08:14:35;;;;;;;4.00;2.72;;;15.90;99.90;16.10;100981.00;;;;5015820;27;104208;-66
2022/05/17 08:17:03;;;;;;;3.10;2.78;;;16.00;99.90;16.30;100989.00;;;;4996730;27;103821;-66
2022/05/17 08:19:28;;;;;;;4.50;3.45;;;16.10;99.90;16.40;100994.00;;;;5013731;27;82802;-66
2022/05/17 08:21:54;;;;;;;3.05;2.75;;;16.20;99.90;16.50;100988.00;;;;5016367;27;112655;-66
2022/05/17 08:24:20;;;;;;;4.82;2.50;;;16.30;99.90;16.50;100989.00;;;;5017095;27;83166;-65
2022/05/17 08:29:30;;;;;;;2.70;2.38;;;16.40;99.90;16.60;101003.00;;;;5010370;27;82702;-67
2022/05/17 08:34:40;;;;;;;4.72;2.40;;;16.50;99.90;16.70;101004.00;;;;5007727;27;83898;-67
2022/05/17 08:37:06;;;;;;;3.85;2.78;;;16.50;99.90;16.70;101012.00;;;;4990578;27;109433;-67
2022/05/17 08:39:31;;;;;;;5.30;3.55;;;16.60;99.90;16.80;101018.00;;;;5016150;27;108808;-66
2022/05/17 08:42:29;;;;;;;2.72;2.45;;;16.60;99.90;16.80;101026.00;;;;5016561;27;83684;-66
2022/05/17 08:45:05;;;;;;;3.40;3.05;;;16.70;99.90;16.90;101015.00;;;;4997588;27;82875;-67
2022/05/17 08:47:52;;;;;;;4.32;2.90;;;16.80;99.90;16.90;101023.00;;;;4997499;27;104866;-67
2022/05/17 08:50:27;;;;;;;4.50;3.33;;;16.80;99.90;16.90;101020.00;;;;5015022;27;82202;-67
2022/05/17 08:52:54;;;;;;;3.42;3.13;;;16.80;99.90;17.00;101028.00;;;;4995957;27;83117;-66
2022/05/17 08:55:36;;;;;;;3.08;2.55;;;16.80;99.90;17.00;101018.00;;;;4997258;27;111050;-66
2022/05/17 08:58:31;;;;;;;3.45;3.13;;;16.90;99.90;17.00;101021.00;;;;4994369;27;83657;-66
2022/05/17 09:01:25;;;;;;;5.95;2.85;;;16.90;99.90;17.10;101016.00;;;;4991142;27;101220;-65
2022/05/17 09:04:45;;;;;;;5.95;2.53;;;16.90;99.90;17.20;101025.00;;;;4996133;27;82631;-65
2022/05/17 09:07:28;;;;;;;2.92;2.72;;;17.10;99.90;17.40;101028.00;;;;5015294;27;102384;-65
2022/05/17 09:10:08;;;;;;;5.25;3.35;;;17.20;99.90;17.60;101037.00;;;;4992931;27;82787;-65
2022/05/17 09:13:11;;;;;;;5.05;3.30;;;17.40;99.90;17.70;101041.00;;;;4997260;27;101160;-66
2022/05/17 09:15:40;;;;;;;3.00;2.55;;;17.50;99.90;17.90;101042.00;;;;4991459;27;83333;-65
2022/05/17 09:18:12;;;;;;;2.88;2.42;;;17.70;99.90;17.90;101043.00;;;;5013851;27;110792;-66
2022/05/17 09:20:39;;;;;;;2.72;2.50;;;17.70;99.90;17.90;101046.00;;;;4997015;27;82679;-65
2022/05/17 09:23:06;;;;;;;4.05;2.22;;;17.70;99.90;17.90;101047.00;;;;5014071;27;83805;-66
2022/05/17 09:25:46;;;;;;;3.38;2.17;;;17.70;99.90;17.80;101049.00;;;;5016316;27;84447;-66
2022/05/17 09:28:17;;;;;;;3.00;2.45;;;17.70;99.90;17.80;101065.00;;;;4996945;27;83086;-66
2022/05/17 09:30:44;;;;;;;3.38;2.65;;;17.70;99.90;17.80;101063.00;;;;5015229;27;82995;-66
2022/05/17 09:33:15;;;;;;;2.90;2.45;;;17.70;99.90;17.90;101066.00;;;;5012374;27;104127;-66
2022/05/17 09:35:56;;;;;;;4.75;2.03;;;17.70;99.90;17.90;101066.00;;;;5005443;27;82758;-66
2022/05/17 09:38:22;;;;;;;3.53;1.70;;;17.80;99.90;18.00;101063.00;;;;5013602;27;83333;-66
2022/05/17 09:40:51;;;;;;;5.60;2.20;;;17.80;99.90;18.00;101066.00;;;;4993580;27;83049;-66
2022/05/17 09:43:25;;;;;;;7.47;3.22;;;17.90;99.90;18.10;101074.00;;;;5015450;27;101094;-66
2022/05/17 09:46:00;;;;;;;4.68;3.15;;;17.90;99.90;18.10;101068.00;;;;4996957;27;82887;-66
2022/05/17 09:54:34;;;;;;;2.40;2.20;;;18.00;99.90;18.10;101075.00;;;;5017890;27;82651;-66
2022/05/17 09:57:19;;;;;;;3.13;2.58;;;18.00;99.90;18.10;101077.00;;;;5012735;27;83975;-66
2022/05/17 09:59:47;;;;;;;4.22;3.25;;;18.00;99.90;18.10;101087.00;;;;4989538;27;83352;-66
2022/05/17 10:02:32;;;;;;;3.00;2.15;;;17.90;99.90;18.10;101092.00;;;;5014067;27;83319;-66
2022/05/17 10:05:18;;;;;;;2.38;2.10;;;18.00;99.90;18.10;101083.00;;;;5006586;27;82614;-66
2022/05/17 10:08:02;;;;;;;5.07;2.63;;;18.00;99.90;18.20;101089.00;;;;5014628;27;82706;-66
2022/05/17 10:10:46;;;;;;;5.18;3.45;;;18.00;99.90;18.20;101091.00;;;;4997542;27;82663;-66
2022/05/17 10:13:34;;;;;;;5.90;3.97;;;18.00;99.90;18.20;101091.00;;;;5003197;27;103537;-65
2022/05/17 10:16:26;;;;;;;7.43;5.13;;;18.00;99.90;18.20;101081.00;;;;5015081;27;93478;-65
2022/05/17 10:18:59;;;;;;;5.63;2.97;;;18.10;99.90;18.20;101086.00;;;;4996226;27;84192;-65
2022/05/17 10:21:44;;;;;;;2.92;2.65;;;18.10;99.90;18.20;101087.00;;;;5009576;27;83993;-65
2022/05/17 10:24:27;;;;;;;5.72;3.50;;;18.10;99.90;18.30;101094.00;;;;4992800;27;82806;-65
2022/05/17 10:27:05;;;;;;;4.38;3.00;;;18.10;99.90;18.30;101091.00;;;;4995966;27;82931;-64
2022/05/17 10:29:46;;;;;;;7.10;3.45;;;18.10;99.90;18.30;101092.00;;;;4997684;27;83196;-65
2022/05/17 10:32:33;;;;;;;3.42;3.13;;;18.20;99.90;18.30;101094.00;;;;5014328;27;92080;-65
2022/05/17 10:35:16;;;;;;;3.97;3.58;;;18.10;99.90;18.30;101089.00;;;;5011856;27;92304;-65
2022/05/17 10:37:56;;;;;;;3.38;3.08;;;18.20;99.90;18.40;101083.00;;;;5015361;27;82057;-65
2022/05/17 10:40:29;;;;;;;5.22;3.88;;;18.20;99.90;18.50;101095.00;;;;4994569;27;83403;-65
2022/05/17 10:42:56;;;;;;;4.10;3.47;;;18.30;99.90;18.60;101100.00;;;;4995611;27;83270;-65
2022/05/17 10:45:46;;;;;;;9.48;2.92;;;18.40;99.90;18.70;101099.00;;;;4991655;27;83666;-65
2022/05/17 10:48:42;;;;;;;5.15;3.72;;;18.50;99.90;18.90;101100.00;;;;4992551;28;83132;-65
2022/05/17 10:51:37;;;;;;;5.28;2.88;;;18.60;99.90;19.10;101092.00;;;;4979327;27;82849;-66
2022/05/17 10:54:34;;;;;;;4.38;2.97;;;18.80;99.90;19.30;101093.00;;;;5015341;27;82784;-65
2022/05/17 10:57:30;;;;;;;3.38;2.40;;;19.00;99.90;19.50;101089.00;;;;5011215;27;82848;-65
2022/05/17 11:00:18;;;;;;;4.32;3.90;;;19.20;99.90;19.80;101092.00;;;;5014572;27;82636;-65
2022/05/17 11:03:26;;;;;;;3.25;2.42;;;19.50;99.90;20.00;101091.00;;;;4996583;27;83283;-66
2022/05/17 11:06:13;;;;;;;5.53;3.20;;;19.70;99.90;20.30;101103.00;;;;5009751;27;83482;-65
2022/05/17 11:09:25;;;;;;;3.78;3.00;;;20.00;99.90;20.50;101102.00;;;;5015023;27;82700;-65
2022/05/17 11:12:05;;;;;;;9.23;5.03;;;20.20;99.90;20.60;101108.00;;;;5014920;27;82934;-65
2022/05/17 11:14:31;;;;;;;7.03;2.78;;;20.30;99.90;20.80;101105.00;;;;5013666;27;84242;-65
2022/05/17 11:17:20;;;;;;;7.60;2.67;;;20.50;99.90;20.90;101111.00;;;;5012683;27;113379;-65
2022/05/17 11:20:12;;;;;;;7.43;2.90;;;20.60;99.90;21.10;101108.00;;;;4994750;27;83000;-66
2022/05/17 11:23:26;;;;;;;2.92;2.55;;;20.80;99.90;21.10;101108.00;;;;4995138;27;90551;-65
2022/05/17 11:26:28;;;;;;;2.58;2.13;;;20.90;99.90;21.10;101103.00;;;;4994795;27;105841;-65